Terminal Aerodrome Forecast
Issued by NWS

Current Version | Previous Version | Graphics & Text | Print | Product List | Glossary On
Versions: 1 2 3 4 5 6 7 8 9 10 11 12 13 14 15 16
000
FTUS41 KILN 152300
TAFLUK
TAF
KLUK 152320Z 1600/1624 33010KT P6SM BKN060
     FM160100 33003KT P6SM FEW060
     FM160400 00000KT P6SM SKC
     FM161400 13009KT P6SM SCT250=

USA.gov is the U.S. government's official web portal to all federal, state and local government web resources and services.